Skip Navigation Links
NOAA logo - Click to go to the NOAA homepage
NOAA's National Weather Service
Alaska Aviation Weather Unit
  NWS logo - Click to go to the NWS homepage
Left Navbar Graphic     17 AKDT = 01 GMT

   
NOAA is celebrating 200 years of science, service, and stewardship. Visit the NOAA 200th celebration Web site to learn more.
USA.gov is the U.S. Government's official Web portal to all Federal, state and local government Web resources and services.
Facebook
NWS on Facebook

Important Change Regarding the AAWU Web Presence

 

Over the last several months, the AAWU has been working to navigate its webpages to a nationally supported server. Security, as well as other needs, have necessitated the change.  In the process, we have made an effort to enhance the functionality of our website, as well as some of our products. As of June 27, 2017, aawu.arh.noaa.gov will be discontinued. The new AAWU web address is weather.gov/aawu. It is now live and will run in-parallel with the old site until it is discontinued. Please send any feedback or questions regarding the new webpages to nws.ar.aawu.webauthors@noaa.gov.  Thank you for your patience during this time of transition.
AAWU Home :: Display TAF Add Bookmark
PAEM 251952Z AUTO 15009KT 10SM BKN024 BKN038 OVC110 13/07 A2994
     RMK AO2=

METAR PAEM 251956Z AUTO 15010KT 10SM SCT024 BKN038 OVC110 13/07 A2994
     RMK AO2 SLP198 T01280072=

METAR PAEM 252056Z AUTO 15009KT 10SM BKN120 14/07 A2993 RMK AO2
 SLP193 T01440072 56013=

METAR PAEM 252156Z AUTO 14011KT 10SM BKN033 OVC120 14/07 A2990 RMK AO2
     SLP186 T01440072=

METAR PAEM 252256Z AUTO 13007G14KT 10SM OVC031 14/08 A2989 RMK AO2
     SLP179 T01440078=

METAR PAEM 252356Z AUTO 14011KT 10SM OVC035 15/08 A2987 RMK AO2 SLP174
     T01500078 10156 20111 56019=


NOAA's National Weather Service
Alaska Aviation Weather Unit
6930 Sand Lake Road
Anchorage, AK 99502-1845
Disclaimer
Credits
Glossary
Privacy Policy
About Us
Career Opportunities
Contact AAWU Internet Services Site last modified: April, 17th 2012